sensor_id;sensor_type;location;lat;lon;timestamp;temperature;humidity
13412;DHT22;67102;51.666;6.880;2023-02-05T00:00:31;12.00;74.30
13412;DHT22;67102;51.666;6.880;2023-02-05T00:02:57;12.00;74.30
13412;DHT22;67102;51.666;6.880;2023-02-05T00:05:23;11.80;74.20
13412;DHT22;67102;51.666;6.880;2023-02-05T00:07:49;12.00;74.40
13412;DHT22;67102;51.666;6.880;2023-02-05T00:10:15;12.00;74.40
13412;DHT22;67102;51.666;6.880;2023-02-05T00:12:42;12.00;74.60
13412;DHT22;67102;51.666;6.880;2023-02-05T00:15:09;11.90;74.60
13412;DHT22;67102;51.666;6.880;2023-02-05T00:20:02;11.90;74.60
13412;DHT22;67102;51.666;6.880;2023-02-05T00:22:28;12.00;74.70
13412;DHT22;67102;51.666;6.880;2023-02-05T00:24:54;11.90;74.60
13412;DHT22;67102;51.666;6.880;2023-02-05T00:29:48;11.90;74.70
13412;DHT22;67102;51.666;6.880;2023-02-05T00:34:41;12.00;74.70
13412;DHT22;67102;51.666;6.880;2023-02-05T00:37:08;12.00;74.60
13412;DHT22;67102;51.666;6.880;2023-02-05T00:39:34;12.00;74.60
13412;DHT22;67102;51.666;6.880;2023-02-05T00:42:00;12.00;74.70
13412;DHT22;67102;51.666;6.880;2023-02-05T00:44:26;11.90;74.50
13412;DHT22;67102;51.666;6.880;2023-02-05T00:46:53;12.00;74.40
13412;DHT22;67102;51.666;6.880;2023-02-05T00:51:45;12.00;74.40
13412;DHT22;67102;51.666;6.880;2023-02-05T00:56:37;12.00;74.40
13412;DHT22;67102;51.666;6.880;2023-02-05T00:59:03;11.90;75.20
13412;DHT22;67102;51.666;6.880;2023-02-05T01:01:29;12.00;75.30
13412;DHT22;67102;51.666;6.880;2023-02-05T01:03:56;12.00;75.30
13412;DHT22;67102;51.666;6.880;2023-02-05T01:06:22;12.00;75.30
13412;DHT22;67102;51.666;6.880;2023-02-05T01:08:48;12.00;75.20
13412;DHT22;67102;51.666;6.880;2023-02-05T01:11:15;12.00;75.20
13412;DHT22;67102;51.666;6.880;2023-02-05T01:13:41;11.90;74.50
13412;DHT22;67102;51.666;6.880;2023-02-05T01:21:01;11.90;74.60
13412;DHT22;67102;51.666;6.880;2023-02-05T01:25:53;11.90;74.80
13412;DHT22;67102;51.666;6.880;2023-02-05T01:28:19;11.90;74.90
13412;DHT22;67102;51.666;6.880;2023-02-05T01:30:46;11.80;74.80
13412;DHT22;67102;51.666;6.880;2023-02-05T01:33:12;12.00;75.00
13412;DHT22;67102;51.666;6.880;2023-02-05T01:35:39;11.90;75.00
13412;DHT22;67102;51.666;6.880;2023-02-05T01:38:07;11.90;75.00
13412;DHT22;67102;51.666;6.880;2023-02-05T01:40:33;12.00;75.00
13412;DHT22;67102;51.666;6.880;2023-02-05T01:42:59;12.00;75.00
13412;DHT22;67102;51.666;6.880;2023-02-05T01:45:50;11.90;75.00
13412;DHT22;67102;51.666;6.880;2023-02-05T01:48:28;12.00;75.00
13412;DHT22;67102;51.666;6.880;2023-02-05T01:50:56;12.00;75.00
13412;DHT22;67102;51.666;6.880;2023-02-05T01:53:28;12.00;75.00
13412;DHT22;67102;51.666;6.880;2023-02-05T01:55:57;12.00;74.90
13412;DHT22;67102;51.666;6.880;2023-02-05T01:58:26;11.90;74.80
13412;DHT22;67102;51.666;6.880;2023-02-05T02:00:55;12.00;74.90
13412;DHT22;67102;51.666;6.880;2023-02-05T02:03:23;12.00;74.90
13412;DHT22;67102;51.666;6.880;2023-02-05T02:05:50;12.10;75.20
13412;DHT22;67102;51.666;6.880;2023-02-05T02:08:16;12.00;75.00
13412;DHT22;67102;51.666;6.880;2023-02-05T02:10:45;12.00;75.10
13412;DHT22;67102;51.666;6.880;2023-02-05T02:13:17;12.00;75.10
13412;DHT22;67102;51.666;6.880;2023-02-05T02:15:45;12.00;75.10
13412;DHT22;67102;51.666;6.880;2023-02-05T02:18:12;12.00;75.00
13412;DHT22;67102;51.666;6.880;2023-02-05T02:20:39;12.00;75.00
13412;DHT22;67102;51.666;6.880;2023-02-05T02:23:12;12.00;75.00
13412;DHT22;67102;51.666;6.880;2023-02-05T02:26:05;12.00;75.00
13412;DHT22;67102;51.666;6.880;2023-02-05T02:28:41;12.00;75.10
13412;DHT22;67102;51.666;6.880;2023-02-05T02:31:11;12.00;75.00
13412;DHT22;67102;51.666;6.880;2023-02-05T02:33:43;12.00;75.00
13412;DHT22;67102;51.666;6.880;2023-02-05T02:36:15;12.10;75.10
13412;DHT22;67102;51.666;6.880;2023-02-05T02:38:49;12.00;75.00
13412;DHT22;67102;51.666;6.880;2023-02-05T02:41:22;11.90;75.00
13412;DHT22;67102;51.666;6.880;2023-02-05T02:43:54;12.00;75.00
13412;DHT22;67102;51.666;6.880;2023-02-05T02:46:25;12.00;75.00
13412;DHT22;67102;51.666;6.880;2023-02-05T02:48:54;12.00;75.10
13412;DHT22;67102;51.666;6.880;2023-02-05T02:51:24;12.10;75.10
13412;DHT22;67102;51.666;6.880;2023-02-05T02:53:54;12.00;74.90
13412;DHT22;67102;51.666;6.880;2023-02-05T02:56:23;12.00;75.00
13412;DHT22;67102;51.666;6.880;2023-02-05T02:58:54;12.00;74.80
13412;DHT22;67102;51.666;6.880;2023-02-05T03:01:24;12.00;74.80
13412;DHT22;67102;51.666;6.880;2023-02-05T03:03:57;12.00;74.80
13412;DHT22;67102;51.666;6.880;2023-02-05T03:06:26;11.90;74.80
13412;DHT22;67102;51.666;6.880;2023-02-05T03:08:57;11.70;74.80
13412;DHT22;67102;51.666;6.880;2023-02-05T03:11:26;11.90;75.10
13412;DHT22;67102;51.666;6.880;2023-02-05T03:13:55;11.90;75.30
13412;DHT22;67102;51.666;6.880;2023-02-05T03:16:21;11.90;75.50
13412;DHT22;67102;51.666;6.880;2023-02-05T03:18:47;11.90;75.60
13412;DHT22;67102;51.666;6.880;2023-02-05T03:21:17;11.90;75.80
13412;DHT22;67102;51.666;6.880;2023-02-05T03:23:44;11.90;75.80
13412;DHT22;67102;51.666;6.880;2023-02-05T03:26:24;11.90;75.90
13412;DHT22;67102;51.666;6.880;2023-02-05T03:28:51;11.90;76.00
13412;DHT22;67102;51.666;6.880;2023-02-05T03:31:21;11.90;76.20
13412;DHT22;67102;51.666;6.880;2023-02-05T03:33:57;12.00;76.30
13412;DHT22;67102;51.666;6.880;2023-02-05T03:36:36;12.00;76.40
13412;DHT22;67102;51.666;6.880;2023-02-05T03:39:13;12.00;76.40
13412;DHT22;67102;51.666;6.880;2023-02-05T03:41:53;12.00;76.50
13412;DHT22;67102;51.666;6.880;2023-02-05T03:44:41;12.00;76.50
13412;DHT22;67102;51.666;6.880;2023-02-05T03:47:33;12.10;76.70
13412;DHT22;67102;51.666;6.880;2023-02-05T03:50:11;12.10;76.70
13412;DHT22;67102;51.666;6.880;2023-02-05T03:52:42;12.10;76.90
13412;DHT22;67102;51.666;6.880;2023-02-05T03:55:14;12.10;77.00
13412;DHT22;67102;51.666;6.880;2023-02-05T03:57:48;12.20;77.20
13412;DHT22;67102;51.666;6.880;2023-02-05T04:00:17;12.20;77.40
13412;DHT22;67102;51.666;6.880;2023-02-05T04:02:45;12.20;77.40
13412;DHT22;67102;51.666;6.880;2023-02-05T04:05:11;12.20;77.50
13412;DHT22;67102;51.666;6.880;2023-02-05T04:10:04;12.20;77.60
13412;DHT22;67102;51.666;6.880;2023-02-05T04:12:31;12.20;77.60
13412;DHT22;67102;51.666;6.880;2023-02-05T04:14:57;12.30;77.70
13412;DHT22;67102;51.666;6.880;2023-02-05T04:19:50;12.30;77.70
13412;DHT22;67102;51.666;6.880;2023-02-05T04:22:16;12.30;77.70
13412;DHT22;67102;51.666;6.880;2023-02-05T04:27:08;12.30;77.70
13412;DHT22;67102;51.666;6.880;2023-02-05T04:29:36;12.30;77.70
13412;DHT22;67102;51.666;6.880;2023-02-05T04:32:02;12.30;77.70
13412;DHT22;67102;51.666;6.880;2023-02-05T04:36:56;12.30;77.70
13412;DHT22;67102;51.666;6.880;2023-02-05T04:39:21;12.30;77.70
13412;DHT22;67102;51.666;6.880;2023-02-05T04:41:47;12.30;77.80
13412;DHT22;67102;51.666;6.880;2023-02-05T04:46:40;12.30;77.90
13412;DHT22;67102;51.666;6.880;2023-02-05T04:49:05;12.30;77.90
13412;DHT22;67102;51.666;6.880;2023-02-05T04:51:33;12.30;77.90
13412;DHT22;67102;51.666;6.880;2023-02-05T04:54:00;12.30;78.00
13412;DHT22;67102;51.666;6.880;2023-02-05T04:56:26;12.30;78.10
13412;DHT22;67102;51.666;6.880;2023-02-05T05:01:20;12.40;78.40
13412;DHT22;67102;51.666;6.880;2023-02-05T05:03:49;12.30;78.40
13412;DHT22;67102;51.666;6.880;2023-02-05T05:06:16;12.30;78.50
13412;DHT22;67102;51.666;6.880;2023-02-05T05:11:12;12.40;78.60
13412;DHT22;67102;51.666;6.880;2023-02-05T05:13:40;12.40;78.60
13412;DHT22;67102;51.666;6.880;2023-02-05T05:16:07;12.40;78.60
13412;DHT22;67102;51.666;6.880;2023-02-05T05:21:00;12.40;78.60
13412;DHT22;67102;51.666;6.880;2023-02-05T05:23:26;12.40;78.60
13412;DHT22;67102;51.666;6.880;2023-02-05T05:28:20;12.40;78.50
13412;DHT22;67102;51.666;6.880;2023-02-05T05:30:47;12.40;78.60
13412;DHT22;67102;51.666;6.880;2023-02-05T05:33:13;12.40;79.30
13412;DHT22;67102;51.666;6.880;2023-02-05T05:35:39;12.40;79.30
13412;DHT22;67102;51.666;6.880;2023-02-05T05:38:05;12.40;79.30
13412;DHT22;67102;51.666;6.880;2023-02-05T05:40:31;12.40;79.40
13412;DHT22;67102;51.666;6.880;2023-02-05T05:42:58;12.40;79.40
13412;DHT22;67102;51.666;6.880;2023-02-05T05:45:25;12.40;79.40
13412;DHT22;67102;51.666;6.880;2023-02-05T05:47:51;12.40;79.60
13412;DHT22;67102;51.666;6.880;2023-02-05T05:50:17;12.40;79.50
13412;DHT22;67102;51.666;6.880;2023-02-05T05:52:43;12.30;79.60
13412;DHT22;67102;51.666;6.880;2023-02-05T05:55:09;12.30;79.60
13412;DHT22;67102;51.666;6.880;2023-02-05T05:57:35;12.30;79.80
13412;DHT22;67102;51.666;6.880;2023-02-05T06:00:02;12.30;79.80
13412;DHT22;67102;51.666;6.880;2023-02-05T06:02:30;12.30;80.00
13412;DHT22;67102;51.666;6.880;2023-02-05T06:04:56;12.30;80.10
13412;DHT22;67102;51.666;6.880;2023-02-05T06:07:21;12.20;80.10
13412;DHT22;67102;51.666;6.880;2023-02-05T06:09:48;12.20;80.10
13412;DHT22;67102;51.666;6.880;2023-02-05T06:12:14;12.20;80.30
13412;DHT22;67102;51.666;6.880;2023-02-05T06:14:40;12.20;80.30
13412;DHT22;67102;51.666;6.880;2023-02-05T06:17:06;12.20;80.30
13412;DHT22;67102;51.666;6.880;2023-02-05T06:19:33;12.20;80.50
13412;DHT22;67102;51.666;6.880;2023-02-05T06:21:59;12.20;80.60
13412;DHT22;67102;51.666;6.880;2023-02-05T06:24:25;12.20;80.60
13412;DHT22;67102;51.666;6.880;2023-02-05T06:26:51;12.20;80.60
13412;DHT22;67102;51.666;6.880;2023-02-05T06:29:17;12.20;80.60
13412;DHT22;67102;51.666;6.880;2023-02-05T06:31:43;12.20;80.70
13412;DHT22;67102;51.666;6.880;2023-02-05T06:34:09;12.20;80.90
13412;DHT22;67102;51.666;6.880;2023-02-05T06:36:36;12.20;81.00
13412;DHT22;67102;51.666;6.880;2023-02-05T06:39:02;12.20;81.10
13412;DHT22;67102;51.666;6.880;2023-02-05T06:41:28;12.20;81.00
13412;DHT22;67102;51.666;6.880;2023-02-05T06:43:54;12.30;81.30
13412;DHT22;67102;51.666;6.880;2023-02-05T06:46:20;12.20;81.20
13412;DHT22;67102;51.666;6.880;2023-02-05T06:48:46;12.20;81.30
13412;DHT22;67102;51.666;6.880;2023-02-05T06:51:12;12.20;81.30
13412;DHT22;67102;51.666;6.880;2023-02-05T06:53:39;12.20;81.20
13412;DHT22;67102;51.666;6.880;2023-02-05T06:56:05;12.20;81.20
13412;DHT22;67102;51.666;6.880;2023-02-05T06:58:31;12.40;81.30
13412;DHT22;67102;51.666;6.880;2023-02-05T07:00:58;12.20;81.20
13412;DHT22;67102;51.666;6.880;2023-02-05T07:03:24;12.20;81.20
13412;DHT22;67102;51.666;6.880;2023-02-05T07:05:50;12.20;81.20
13412;DHT22;67102;51.666;6.880;2023-02-05T07:08:16;12.20;81.10
13412;DHT22;67102;51.666;6.880;2023-02-05T07:10:44;12.20;81.20
13412;DHT22;67102;51.666;6.880;2023-02-05T07:13:10;12.20;81.20
13412;DHT22;67102;51.666;6.880;2023-02-05T07:15:36;12.20;81.20
13412;DHT22;67102;51.666;6.880;2023-02-05T07:18:02;9.10;79.30
13412;DHT22;67102;51.666;6.880;2023-02-05T07:20:28;12.20;81.30
13412;DHT22;67102;51.666;6.880;2023-02-05T07:22:54;12.20;81.30
13412;DHT22;67102;51.666;6.880;2023-02-05T07:25:20;12.20;81.40
13412;DHT22;67102;51.666;6.880;2023-02-05T07:27:47;12.20;81.50
13412;DHT22;67102;51.666;6.880;2023-02-05T07:30:14;12.20;81.50
13412;DHT22;67102;51.666;6.880;2023-02-05T07:32:40;12.20;81.70
13412;DHT22;67102;51.666;6.880;2023-02-05T07:35:06;12.20;81.50
13412;DHT22;67102;51.666;6.880;2023-02-05T07:37:32;12.20;81.50
13412;DHT22;67102;51.666;6.880;2023-02-05T07:39:58;8.90;79.50
13412;DHT22;67102;51.666;6.880;2023-02-05T07:42:24;12.20;81.60
13412;DHT22;67102;51.666;6.880;2023-02-05T07:44:51;12.20;81.60
13412;DHT22;67102;51.666;6.880;2023-02-05T07:47:17;12.30;81.80
13412;DHT22;67102;51.666;6.880;2023-02-05T07:49:43;12.30;81.70
13412;DHT22;67102;51.666;6.880;2023-02-05T07:52:09;12.30;81.80
13412;DHT22;67102;51.666;6.880;2023-02-05T07:54:36;12.30;81.70
13412;DHT22;67102;51.666;6.880;2023-02-05T07:57:01;12.30;81.80
13412;DHT22;67102;51.666;6.880;2023-02-05T07:59:28;12.20;81.70
13412;DHT22;67102;51.666;6.880;2023-02-05T08:01:55;12.20;81.70
13412;DHT22;67102;51.666;6.880;2023-02-05T08:04:21;12.20;81.70
13412;DHT22;67102;51.666;6.880;2023-02-05T08:06:47;12.20;81.80
13412;DHT22;67102;51.666;6.880;2023-02-05T08:09:12;12.20;81.50
13412;DHT22;67102;51.666;6.880;2023-02-05T08:11:38;12.10;81.30
13412;DHT22;67102;51.666;6.880;2023-02-05T08:14:04;12.10;81.20
13412;DHT22;67102;51.666;6.880;2023-02-05T08:16:30;12.00;80.90
13412;DHT22;67102;51.666;6.880;2023-02-05T08:18:57;12.00;80.80
13412;DHT22;67102;51.666;6.880;2023-02-05T08:21:23;12.00;80.80
13412;DHT22;67102;51.666;6.880;2023-02-05T08:23:49;12.00;82.00
13412;DHT22;67102;51.666;6.880;2023-02-05T08:26:16;12.00;84.00
13412;DHT22;67102;51.666;6.880;2023-02-05T08:28:42;12.00;84.40
13412;DHT22;67102;51.666;6.880;2023-02-05T08:31:09;12.10;82.60
13412;DHT22;67102;51.666;6.880;2023-02-05T08:33:36;12.20;82.00
13412;DHT22;67102;51.666;6.880;2023-02-05T08:36:04;12.20;81.00
13412;DHT22;67102;51.666;6.880;2023-02-05T08:38:31;12.20;80.30
13412;DHT22;67102;51.666;6.880;2023-02-05T08:40:57;12.30;80.30
13412;DHT22;67102;51.666;6.880;2023-02-05T08:43:23;12.20;80.10
13412;DHT22;67102;51.666;6.880;2023-02-05T08:45:48;12.10;80.30
13412;DHT22;67102;51.666;6.880;2023-02-05T08:48:14;12.10;80.30
13412;DHT22;67102;51.666;6.880;2023-02-05T08:50:44;12.10;80.80
13412;DHT22;67102;51.666;6.880;2023-02-05T08:53:11;12.10;80.90
13412;DHT22;67102;51.666;6.880;2023-02-05T08:55:37;12.00;81.00
13412;DHT22;67102;51.666;6.880;2023-02-05T08:58:03;12.00;81.10
13412;DHT22;67102;51.666;6.880;2023-02-05T09:00:29;12.00;81.00
13412;DHT22;67102;51.666;6.880;2023-02-05T09:02:55;12.00;81.10
13412;DHT22;67102;51.666;6.880;2023-02-05T09:05:21;12.00;81.20
13412;DHT22;67102;51.666;6.880;2023-02-05T09:07:47;12.00;81.30
13412;DHT22;67102;51.666;6.880;2023-02-05T09:10:14;12.00;81.50
13412;DHT22;67102;51.666;6.880;2023-02-05T09:12:40;12.00;81.60
13412;DHT22;67102;51.666;6.880;2023-02-05T09:15:07;12.10;81.50
13412;DHT22;67102;51.666;6.880;2023-02-05T09:17:34;12.00;81.30
13412;DHT22;67102;51.666;6.880;2023-02-05T09:20:00;12.00;80.80
13412;DHT22;67102;51.666;6.880;2023-02-05T09:22:25;12.00;80.80
13412;DHT22;67102;51.666;6.880;2023-02-05T09:24:51;12.00;80.70
13412;DHT22;67102;51.666;6.880;2023-02-05T09:27:19;12.00;80.60
13412;DHT22;67102;51.666;6.880;2023-02-05T09:29:45;12.00;80.60
13412;DHT22;67102;51.666;6.880;2023-02-05T09:32:11;12.00;80.60
13412;DHT22;67102;51.666;6.880;2023-02-05T09:34:37;12.00;80.60
13412;DHT22;67102;51.666;6.880;2023-02-05T09:37:03;12.00;80.60
13412;DHT22;67102;51.666;6.880;2023-02-05T09:39:29;12.00;80.80
13412;DHT22;67102;51.666;6.880;2023-02-05T09:41:59;12.00;80.80
13412;DHT22;67102;51.666;6.880;2023-02-05T09:44:45;12.00;80.70
13412;DHT22;67102;51.666;6.880;2023-02-05T09:47:23;12.00;80.80
13412;DHT22;67102;51.666;6.880;2023-02-05T09:50:00;12.00;80.80
13412;DHT22;67102;51.666;6.880;2023-02-05T09:52:33;12.00;80.80
13412;DHT22;67102;51.666;6.880;2023-02-05T09:55:03;12.10;80.80
13412;DHT22;67102;51.666;6.880;2023-02-05T09:57:35;12.10;80.70
13412;DHT22;67102;51.666;6.880;2023-02-05T10:00:15;12.10;80.70
13412;DHT22;67102;51.666;6.880;2023-02-05T10:02:46;12.10;80.80
13412;DHT22;67102;51.666;6.880;2023-02-05T10:05:17;12.20;80.80
13412;DHT22;67102;51.666;6.880;2023-02-05T10:07:53;12.20;80.70
13412;DHT22;67102;51.666;6.880;2023-02-05T10:10:26;12.20;80.80
13412;DHT22;67102;51.666;6.880;2023-02-05T10:13:11;12.20;80.90
13412;DHT22;67102;51.666;6.880;2023-02-05T10:16:07;12.20;81.10
13412;DHT22;67102;51.666;6.880;2023-02-05T10:19:02;12.30;81.20
13412;DHT22;67102;51.666;6.880;2023-02-05T10:21:55;12.30;80.80
13412;DHT22;67102;51.666;6.880;2023-02-05T10:24:47;12.30;81.00
13412;DHT22;67102;51.666;6.880;2023-02-05T10:27:22;12.30;80.60
13412;DHT22;67102;51.666;6.880;2023-02-05T10:29:56;12.30;80.60
13412;DHT22;67102;51.666;6.880;2023-02-05T10:32:38;12.30;80.50
13412;DHT22;67102;51.666;6.880;2023-02-05T10:35:21;12.30;80.60
13412;DHT22;67102;51.666;6.880;2023-02-05T10:37:51;12.30;81.00
13412;DHT22;67102;51.666;6.880;2023-02-05T10:40:20;12.30;80.50
13412;DHT22;67102;51.666;6.880;2023-02-05T10:42:50;12.30;80.70
13412;DHT22;67102;51.666;6.880;2023-02-05T10:45:22;12.30;80.80
13412;DHT22;67102;51.666;6.880;2023-02-05T10:48:04;12.20;81.00
13412;DHT22;67102;51.666;6.880;2023-02-05T10:50:50;12.30;81.30
13412;DHT22;67102;51.666;6.880;2023-02-05T10:53:22;12.30;81.20
13412;DHT22;67102;51.666;6.880;2023-02-05T10:55:49;12.30;81.10
13412;DHT22;67102;51.666;6.880;2023-02-05T10:58:38;12.20;81.00
13412;DHT22;67102;51.666;6.880;2023-02-05T11:01:06;12.20;81.60
13412;DHT22;67102;51.666;6.880;2023-02-05T11:03:38;12.20;81.20
13412;DHT22;67102;51.666;6.880;2023-02-05T11:06:08;12.10;80.90
13412;DHT22;67102;51.666;6.880;2023-02-05T11:08:37;12.10;81.00
13412;DHT22;67102;51.666;6.880;2023-02-05T11:11:04;12.10;81.30
13412;DHT22;67102;51.666;6.880;2023-02-05T11:13:31;12.10;81.10
13412;DHT22;67102;51.666;6.880;2023-02-05T11:16:01;12.20;81.30
13412;DHT22;67102;51.666;6.880;2023-02-05T11:18:29;12.10;81.30
13412;DHT22;67102;51.666;6.880;2023-02-05T11:21:02;12.00;81.30
13412;DHT22;67102;51.666;6.880;2023-02-05T11:23:29;12.00;81.40
13412;DHT22;67102;51.666;6.880;2023-02-05T11:25:57;12.00;81.30
13412;DHT22;67102;51.666;6.880;2023-02-05T11:28:27;12.00;80.80
13412;DHT22;67102;51.666;6.880;2023-02-05T11:30:54;11.90;80.90
13412;DHT22;67102;51.666;6.880;2023-02-05T11:33:28;11.90;80.80
13412;DHT22;67102;51.666;6.880;2023-02-05T11:35:56;11.70;81.00
13412;DHT22;67102;51.666;6.880;2023-02-05T11:38:33;11.60;81.00
13412;DHT22;67102;51.666;6.880;2023-02-05T11:41:07;11.50;81.50
13412;DHT22;67102;51.666;6.880;2023-02-05T11:43:34;11.50;81.70
13412;DHT22;67102;51.666;6.880;2023-02-05T11:46:05;11.40;81.60
13412;DHT22;67102;51.666;6.880;2023-02-05T11:48:37;11.40;81.60
13412;DHT22;67102;51.666;6.880;2023-02-05T11:51:09;11.40;81.40
13412;DHT22;67102;51.666;6.880;2023-02-05T11:53:45;11.30;81.40
13412;DHT22;67102;51.666;6.880;2023-02-05T11:56:19;11.30;81.30
13412;DHT22;67102;51.666;6.880;2023-02-05T11:58:57;11.20;81.10
13412;DHT22;67102;51.666;6.880;2023-02-05T12:01:25;11.10;81.60
13412;DHT22;67102;51.666;6.880;2023-02-05T12:03:57;11.10;81.30
13412;DHT22;67102;51.666;6.880;2023-02-05T12:06:30;11.10;81.30
13412;DHT22;67102;51.666;6.880;2023-02-05T12:09:00;11.00;80.80
13412;DHT22;67102;51.666;6.880;2023-02-05T12:11:36;10.90;80.20
13412;DHT22;67102;51.666;6.880;2023-02-05T12:14:17;10.80;80.30
13412;DHT22;67102;51.666;6.880;2023-02-05T12:16:51;10.80;80.40
13412;DHT22;67102;51.666;6.880;2023-02-05T12:19:28;10.90;80.40
13412;DHT22;67102;51.666;6.880;2023-02-05T12:22:03;10.90;79.90
13412;DHT22;67102;51.666;6.880;2023-02-05T12:24:55;10.90;79.80
13412;DHT22;67102;51.666;6.880;2023-02-05T12:27:35;10.90;79.70
13412;DHT22;67102;51.666;6.880;2023-02-05T12:30:21;10.70;79.60
13412;DHT22;67102;51.666;6.880;2023-02-05T12:32:59;8.90;79.00
13412;DHT22;67102;51.666;6.880;2023-02-05T12:35:46;10.70;79.50
13412;DHT22;67102;51.666;6.880;2023-02-05T12:38:22;10.60;79.70
13412;DHT22;67102;51.666;6.880;2023-02-05T12:41:03;10.60;79.70
13412;DHT22;67102;51.666;6.880;2023-02-05T12:43:37;10.50;79.90
13412;DHT22;67102;51.666;6.880;2023-02-05T12:46:15;10.50;79.20
13412;DHT22;67102;51.666;6.880;2023-02-05T12:49:04;10.50;78.60
13412;DHT22;67102;51.666;6.880;2023-02-05T12:51:56;10.40;79.30
13412;DHT22;67102;51.666;6.880;2023-02-05T12:54:57;10.50;78.80
13412;DHT22;67102;51.666;6.880;2023-02-05T12:57:36;10.50;78.80
13412;DHT22;67102;51.666;6.880;2023-02-05T13:00:12;10.50;78.80
13412;DHT22;67102;51.666;6.880;2023-02-05T13:02:48;10.60;78.50
13412;DHT22;67102;51.666;6.880;2023-02-05T13:05:20;10.70;78.60
13412;DHT22;67102;51.666;6.880;2023-02-05T13:07:54;10.70;78.70
13412;DHT22;67102;51.666;6.880;2023-02-05T13:10:28;10.90;78.20
13412;DHT22;67102;51.666;6.880;2023-02-05T13:13:01;10.80;76.70
13412;DHT22;67102;51.666;6.880;2023-02-05T13:15:31;10.80;76.90
13412;DHT22;67102;51.666;6.880;2023-02-05T13:18:02;10.90;77.20
13412;DHT22;67102;51.666;6.880;2023-02-05T13:20:32;11.00;77.00
13412;DHT22;67102;51.666;6.880;2023-02-05T13:23:02;11.00;76.10
13412;DHT22;67102;51.666;6.880;2023-02-05T13:25:33;11.00;76.40
13412;DHT22;67102;51.666;6.880;2023-02-05T13:28:10;11.10;77.00
13412;DHT22;67102;51.666;6.880;2023-02-05T13:30:46;11.20;76.80
13412;DHT22;67102;51.666;6.880;2023-02-05T13:33:14;11.20;76.50
13412;DHT22;67102;51.666;6.880;2023-02-05T13:35:42;11.30;77.20
13412;DHT22;67102;51.666;6.880;2023-02-05T13:38:26;11.40;76.90
13412;DHT22;67102;51.666;6.880;2023-02-05T13:41:24;11.40;76.30
13412;DHT22;67102;51.666;6.880;2023-02-05T13:44:10;12.50;76.40
13412;DHT22;67102;51.666;6.880;2023-02-05T13:47:16;11.40;76.30
13412;DHT22;67102;51.666;6.880;2023-02-05T13:50:26;11.40;75.60
13412;DHT22;67102;51.666;6.880;2023-02-05T13:53:36;11.50;75.60
13412;DHT22;67102;51.666;6.880;2023-02-05T13:56:39;11.40;75.00
13412;DHT22;67102;51.666;6.880;2023-02-05T13:59:13;11.40;75.30
13412;DHT22;67102;51.666;6.880;2023-02-05T14:01:43;11.40;75.30
13412;DHT22;67102;51.666;6.880;2023-02-05T14:04:18;11.40;74.50
13412;DHT22;67102;51.666;6.880;2023-02-05T14:06:54;11.30;75.30
13412;DHT22;67102;51.666;6.880;2023-02-05T14:09:25;11.30;75.40
13412;DHT22;67102;51.666;6.880;2023-02-05T14:12:02;11.20;74.90
13412;DHT22;67102;51.666;6.880;2023-02-05T14:14:31;11.20;73.70
13412;DHT22;67102;51.666;6.880;2023-02-05T14:16:58;11.20;73.50
13412;DHT22;67102;51.666;6.880;2023-02-05T14:19:51;11.10;74.90
13412;DHT22;67102;51.666;6.880;2023-02-05T14:22:33;11.10;74.00
13412;DHT22;67102;51.666;6.880;2023-02-05T14:25:00;11.10;73.60
13412;DHT22;67102;51.666;6.880;2023-02-05T14:27:49;11.20;73.80
13412;DHT22;67102;51.666;6.880;2023-02-05T14:30:49;11.20;73.60
13412;DHT22;67102;51.666;6.880;2023-02-05T14:33:36;11.30;73.90
13412;DHT22;67102;51.666;6.880;2023-02-05T14:36:29;11.40;72.50
13412;DHT22;67102;51.666;6.880;2023-02-05T14:38:59;11.40;73.20
13412;DHT22;67102;51.666;6.880;2023-02-05T14:41:30;11.40;73.50
13412;DHT22;67102;51.666;6.880;2023-02-05T14:44:05;11.50;74.00
13412;DHT22;67102;51.666;6.880;2023-02-05T14:46:43;11.50;73.60
13412;DHT22;67102;51.666;6.880;2023-02-05T14:49:21;11.50;73.10
13412;DHT22;67102;51.666;6.880;2023-02-05T14:51:52;11.60;73.60
13412;DHT22;67102;51.666;6.880;2023-02-05T14:54:21;8.90;72.00
13412;DHT22;67102;51.666;6.880;2023-02-05T14:56:50;11.60;73.70
13412;DHT22;67102;51.666;6.880;2023-02-05T14:59:23;11.70;73.60
13412;DHT22;67102;51.666;6.880;2023-02-05T15:01:51;11.70;73.30
13412;DHT22;67102;51.666;6.880;2023-02-05T15:04:22;11.70;72.60
13412;DHT22;67102;51.666;6.880;2023-02-05T15:06:53;11.70;72.90
13412;DHT22;67102;51.666;6.880;2023-02-05T15:09:22;11.70;73.40
13412;DHT22;67102;51.666;6.880;2023-02-05T15:12:19;11.70;73.10
13412;DHT22;67102;51.666;6.880;2023-02-05T15:14:55;11.80;73.00
13412;DHT22;67102;51.666;6.880;2023-02-05T15:17:45;11.80;72.80
13412;DHT22;67102;51.666;6.880;2023-02-05T15:20:24;11.80;73.10
13412;DHT22;67102;51.666;6.880;2023-02-05T15:23:03;11.90;73.20
13412;DHT22;67102;51.666;6.880;2023-02-05T15:25:42;11.90;71.30
13412;DHT22;67102;51.666;6.880;2023-02-05T15:28:20;11.90;71.40
13412;DHT22;67102;51.666;6.880;2023-02-05T15:30:56;11.80;68.80
13412;DHT22;67102;51.666;6.880;2023-02-05T15:33:33;11.80;69.20
13412;DHT22;67102;51.666;6.880;2023-02-05T15:36:10;11.80;69.50
13412;DHT22;67102;51.666;6.880;2023-02-05T15:38:43;11.70;68.40
13412;DHT22;67102;51.666;6.880;2023-02-05T15:41:14;11.70;68.40
13412;DHT22;67102;51.666;6.880;2023-02-05T15:43:56;11.60;68.70
13412;DHT22;67102;51.666;6.880;2023-02-05T15:46:24;11.70;69.60
13412;DHT22;67102;51.666;6.880;2023-02-05T15:48:50;11.70;69.80
13412;DHT22;67102;51.666;6.880;2023-02-05T15:51:23;11.70;69.60
13412;DHT22;67102;51.666;6.880;2023-02-05T15:53:54;11.80;69.40
13412;DHT22;67102;51.666;6.880;2023-02-05T15:56:24;11.60;68.00
13412;DHT22;67102;51.666;6.880;2023-02-05T15:58:53;11.60;68.90
13412;DHT22;67102;51.666;6.880;2023-02-05T16:01:25;11.70;69.40
13412;DHT22;67102;51.666;6.880;2023-02-05T16:03:53;11.60;70.10
13412;DHT22;67102;51.666;6.880;2023-02-05T16:06:20;11.70;70.00
13412;DHT22;67102;51.666;6.880;2023-02-05T16:08:49;11.70;69.80
13412;DHT22;67102;51.666;6.880;2023-02-05T16:11:25;11.70;69.30
13412;DHT22;67102;51.666;6.880;2023-02-05T16:14:09;11.70;68.40
13412;DHT22;67102;51.666;6.880;2023-02-05T16:16:39;11.60;68.10
13412;DHT22;67102;51.666;6.880;2023-02-05T16:19:13;11.60;68.80
13412;DHT22;67102;51.666;6.880;2023-02-05T16:21:44;11.60;69.60
13412;DHT22;67102;51.666;6.880;2023-02-05T16:24:21;11.60;69.60
13412;DHT22;67102;51.666;6.880;2023-02-05T16:26:55;11.50;69.40
13412;DHT22;67102;51.666;6.880;2023-02-05T16:29:26;11.50;69.30
13412;DHT22;67102;51.666;6.880;2023-02-05T16:31:58;11.50;69.60
13412;DHT22;67102;51.666;6.880;2023-02-05T16:34:27;11.40;69.70
13412;DHT22;67102;51.666;6.880;2023-02-05T16:36:53;11.40;69.80